Data for 12/12/2006

Time Sea-Level Adjusted Pressure Absolute Pressure Temperature Relative Humidity Dew Point   
(mb) (inHg) (mb) (inHg) (C) (F) (%) (C) (F)
00:05 1017 30.03 847 25.01 0.2 32.4 54 -7.9 17.7
00:10 1017 30.03 846 24.98 0.1 32.3 55 -7.9 17.8
00:15 1017 30.03 846 24.98 0.3 32.6 54 -7.8 17.9
00:20 1017 30.03 846 24.98 0.4 32.7 54 -8 17.6
00:25 1017 30.03 847 25.01 0.4 32.8 54 -7.9 17.7
00:30 1017 30.03 846 24.98 0.3 32.5 55 -7.8 18
00:35 1017 30.03 846 24.98 0.1 32.2 56 -7.7 18.2
00:40 1017 30.03 846 24.98 0 32 56 -7.7 18.2
00:45 1017 30.03 846 24.98 0.1 32.1 56 -7.7 18.2
00:50 1017 30.03 846 24.98 0.2 32.3 57 -7.5 18.5
00:55 1017 30.03 846 24.98 0.4 32.7 55 -7.5 18.5
01:00 1017 30.03 846 24.98 0.5 33 56 -7.3 18.8
01:05 1017 30.03 846 24.98 0.6 33.2 55 -7.5 18.5
01:10 1017 30.03 846 24.98 0.8 33.4 55 -7.3 18.8
01:15 1017 30.03 846 24.98 0.7 33.2 56 -7.1 19.2
01:20 1017 30.03 846 24.98 0.5 32.8 57 -7.2 19.1
01:25 1017 30.03 846 24.98 0.5 33 56 -7.3 18.8
01:30 1017 30.03 846 24.98 0.8 33.4 56 -7.1 19.2
01:35 1017 30.03 846 24.98 0.9 33.6 55 -7.2 19.1
01:40 1017 30.03 846 24.98 0.8 33.5 55 -7.2 19
01:45 1017 30.03 846 24.98 1.1 33.9 52 -7.8 17.9
01:50 1017 30.03 846 24.98 1.2 34.1 54 -7.1 19.1
01:55 1017 30.03 846 24.98 0.4 32.8 55 -7.5 18.4
02:00 1017 30.03 846 24.98 0.9 33.6 53 -7.6 18.2
02:05 1017 30.03 846 24.98 1.2 34.1 52 -7.7 18.2
02:10 1017 30.03 846 24.98 1.6 34.8 51 -7.5 18.5
02:15 1017 30.03 846 24.98 1.8 35.2 50 -7.4 18.6
02:20 1017 30.03 846 24.98 1.9 35.3 52 -7 19.5
02:25 1017 30.03 846 24.98 1 33.8 56 -6.8 19.8
02:30 1017 30.03 846 24.98 0.7 33.2 56 -7.1 19.3
02:35 1017 30.03 846 24.98 0.3 32.6 61 -6.3 20.6
02:40 1017 30.03 846 24.98 -0.7 30.8 62 -7 19.4
02:45 1017 30.03 846 24.98 -0.5 31.1 62 -6.9 19.5
02:50 1017 30.03 846 24.98 -0.4 31.3 62 -6.8 19.8
02:55 1017 30.03 846 24.98 -0.4 31.3 61 -7 19.3
03:00 1017 30.03 846 24.98 -0.1 31.8 62 -6.5 20.2
03:05 1017 30.03 846 24.98 0.6 33.1 59 -6.5 20.2
03:10 1017 30.03 846 24.98 0.9 33.6 59 -6.2 20.9
03:15 1017 30.03 846 24.98 0.9 33.6 59 -6.2 20.8
03:20 1017 30.03 846 24.98 0.7 33.2 59 -6.4 20.6
03:25 1017 30.03 846 24.98 0.2 32.3 61 -6.5 20.3
03:30 1017 30.03 846 24.98 0.3 32.5 60 -6.5 20.3
03:35 1017 30.03 846 24.98 0.6 33.1 61 -6.2 20.9
03:40 1017 30.03 846 24.98 0.9 33.6 58 -6.4 20.4
03:45 1017 30.03 846 24.98 1.9 35.5 55 -6.2 20.9
03:50 1017 30.03 846 24.98 2.5 36.4 53 -6.1 21
03:55 1016 30 846 24.98 2.9 37.3 52 -5.9 21.3
04:00 1016 30 845 24.95 3.2 37.8 52 -5.8 21.6
04:05 1016 30 845 24.95 3.1 37.7 53 -5.6 22
04:10 1016 30 845 24.95 3.1 37.6 52 -5.7 21.8
04:15 1016 30 845 24.95 3.4 38.1 51 -5.7 21.7
04:20 1016 30 845 24.95 3.4 38.1 51 -5.7 21.8
04:25 1016 30 845 24.95 3.7 38.7 50 -5.8 21.6
04:30 1016 30 845 24.95 4.1 39.3 50 -5.4 22.2
04:35 1016 30 845 24.95 4 39.3 50 -5.4 22.2
04:40 1016 30 846 24.98 3.8 38.8 52 -5.2 22.6
04:45 1016 30 846 24.98 4.1 39.3 50 -5.5 22.1
04:50 1016 30 846 24.98 4.6 40.2 49 -5.2 22.6
04:55 1016 30 846 24.98 4.5 40.2 49 -5.2 22.7
05:00 1016 30 846 24.98 4.6 40.2 49 -5.3 22.5
05:05 1016 30 845 24.95 4.7 40.5 48 -5.3 22.4
05:10 1016 30 846 24.98 4.9 40.7 48 -5.4 22.3
05:15 1016 30 845 24.95 4.6 40.3 49 -5.2 22.7
05:20 1016 30 845 24.95 4.5 40.1 49 -5.2 22.7
05:25 1016 30 845 24.95 4.4 39.8 50 -5.1 22.9
05:30 1016 30 845 24.95 4.4 39.9 50 -5 22.9
05:35 1016 30 845 24.95 4.3 39.7 51 -5 22.9
05:40 1016 30 845 24.95 3.7 38.6 55 -4.6 23.7
05:45 1016 30 845 24.95 2.9 37.1 55 -5.3 22.5
05:50 1016 30 845 24.95 3.2 37.8 55 -5 22.9
05:55 1016 30 845 24.95 3.1 37.6 55 -5.1 22.8
06:00 1016 30 845 24.95 3.1 37.7 55 -5.1 22.9
06:05 1016 30 845 24.95 2.8 37 56 -5 22.9
06:10 1016 30 845 24.95 2.5 36.5 57 -5.2 22.7
06:15 1016 30 845 24.95 2.7 36.8 56 -5.3 22.4
06:20 1016 30 845 24.95 2.9 37.3 55 -5.2 22.7
06:25 1016 30 845 24.95 3 37.3 55 -5.1 22.8
06:30 1016 30 845 24.95 2.7 36.8 57 -5.1 22.9
06:35 1016 30 845 24.95 2.5 36.5 57 -5.1 22.9
06:40 1016 30 845 24.95 2.8 37 55 -5.2 22.6
06:45 1016 30 845 24.95 3.1 37.6 55 -5 22.9
06:50 1016 30 845 24.95 2.9 37.2 56 -4.9 23.1
06:55 1016 30 845 24.95 2.4 36.2 59 -4.9 23.1
07:00 1016 30 845 24.95 2.1 35.8 59 -5 23
07:05 1016 30 845 24.95 2.3 36.1 58 -5.3 22.5
07:10 1016 30 845 24.95 2.6 36.7 58 -4.9 23.2
07:15 1016 30 845 24.95 2.3 36.1 59 -5 22.9
07:20 1016 30 845 24.95 1.7 35.1 60 -5.2 22.7
07:25 1016 30 845 24.95 1.7 35.1 60 -5.2 22.7
07:30 1016 30 845 24.95 1.2 34.2 63 -5.1 22.9
07:35 1016 30 845 24.95 1.8 35.2 58 -5.7 21.7
07:40 1016 30 845 24.95 2.5 36.6 56 -5.5 22.2
07:45 1016 30 845 24.95 2.4 36.2 57 -5.3 22.5
07:50 1016 30 845 24.95 1.6 34.9 60 -5.4 22.4
07:55 1016 30 845 24.95 1.4 34.5 62 -5.2 22.7
08:00 1016 30 845 24.95 1.1 34 61 -5.5 22.1
08:05 1016 30 845 24.95 1.5 34.7 60 -5.5 22.2
08:10 1016 30 845 24.95 1.4 34.6 60 -5.5 22.1
08:15 1016 30 845 24.95 2.4 36.3 57 -5.2 22.7
08:20 1016 30 845 24.95 2.6 36.7 55 -5.6 22
08:25 1016 30 845 24.95 2.7 36.9 54 -5.6 21.9
08:30 1016 30 845 24.95 2.9 37.2 54 -5.5 22
08:35 1016 30 845 24.95 3.1 37.6 53 -5.5 22.1
08:40 1016 30 845 24.95 4.3 39.7 49 -5.6 21.9
08:45 1016 30 845 24.95 4.9 40.9 47 -5.5 22.1
08:50 1016 30 845 24.95 5.3 41.5 47 -5 22.9
08:55 1016 30 845 24.95 5.3 41.6 48 -4.7 23.5
09:00 1016 30 845 24.95 5.2 41.3 49 -4.7 23.6
09:05 1016 30 845 24.95 5.2 41.4 49 -4.7 23.5
09:10 1016 30 845 24.95 5.2 41.4 49 -4.7 23.5
09:15 1016 30 845 24.95 5.5 41.9 47 -4.8 23.3
09:20 1016 30 845 24.95 6 42.8 46 -4.6 23.6
09:25 1016 30 845 24.95 6.3 43.3 46 -4.6 23.7
09:30 1016 30 845 24.95 6.6 43.9 43 -5.1 22.8
09:35 1016 30 845 24.95 6.7 44.1 44 -4.8 23.4
09:40 1016 30 845 24.95 6.9 44.3 42 -5.2 22.6
09:45 1016 30 845 24.95 7 44.6 43 -4.8 23.3
09:50 1016 30 845 24.95 6.9 44.4 43 -4.9 23.2
09:55 1016 30 845 24.95 6.8 44.2 43 -4.9 23.2
10:00 1016 30 845 24.95 6.8 44.2 43 -5 22.9
10:05 1016 30 845 24.95 6.7 44.1 44 -4.7 23.5
10:10 1016 30 845 24.95 6.5 43.7 44 -4.7 23.5
10:15 1016 30 845 24.95 6.4 43.6 46 -4.5 24
10:20 1016 30 845 24.95 6.4 43.5 44 -4.9 23.2
10:25 1016 30 846 24.98 6.5 43.8 44 -4.9 23.2
10:30 1016 30 846 24.98 6.6 43.8 44 -4.8 23.4
10:35 1017 30.03 846 24.98 6.6 43.9 44 -4.9 23.1
10:40 1016 30 846 24.98 6.8 44.2 44 -4.7 23.5
10:45 1016 30 846 24.98 6.7 44 44 -4.6 23.7
10:50 1017 30.03 846 24.98 6.5 43.7 46 -4.2 24.5
10:55 1017 30.03 846 24.98 6.5 43.6 44 -4.8 23.3
11:00 1016 30 846 24.98 6.8 44.2 44 -4.5 23.9
11:05 1016 30 846 24.98 7 44.7 44 -4.3 24.3
11:10 1016 30 846 24.98 7.1 44.8 44 -4.4 24.1
11:15 1016 30 846 24.98 7.3 45.2 42 -4.6 23.7
11:20 1016 30 846 24.98 7.4 45.4 43 -4.4 24
11:25 1016 30 846 24.98 7.9 46.2 42 -4.3 24.2
11:30 1016 30 846 24.98 7.8 46 42 -4.3 24.3
11:35 1016 30 846 24.98 7.7 45.8 42 -4.5 23.9
11:40 1016 30 846 24.98 7.9 46.3 41 -4.6 23.8
11:45 1016 30 845 24.95 8.2 46.7 40 -4.7 23.5
11:50 1016 30 846 24.98 8.4 47.1 40 -4.5 23.9
11:55 1016 30 845 24.95 8.7 47.7 38 -4.9 23.2
12:00 1016 30 845 24.95 8.1 46.6 40 -4.7 23.6
12:05 1016 30 846 24.98 7.9 46.2 40 -4.9 23.1
12:10 1016 30 846 24.98 7.4 45.4 42 -4.6 23.7
12:15 1016 30 846 24.98 7.2 44.9 43 -4.6 23.7
12:20 1016 30 846 24.98 7 44.6 43 -4.7 23.6
12:25 1016 30 846 24.98 6.8 44.3 44 -4.5 23.9
12:30 1016 30 846 24.98 6.7 44 45 -4.5 23.9
12:35 1016 30 846 24.98 6.6 44 45 -4.4 24.1
12:40 1016 30 846 24.98 6.6 43.8 46 -4.1 24.6
12:45 1016 30 846 24.98 6.5 43.6 46 -4.4 24.2
12:50 1016 30 846 24.98 6.6 43.8 45 -4.5 23.9
12:55 1016 30 845 24.95 6.7 44 46 -4.2 24.5
13:00 1016 30 845 24.95 6.6 43.8 46 -4.4 24.2
13:05 1016 30 845 24.95 6.6 43.9 46 -4.3 24.2
13:10 1016 30 845 24.95 6.7 44 45 -4.5 23.9
13:15 1016 30 845 24.95 6.6 43.9 45 -4.4 24.1
13:20 1016 30 845 24.95 6.5 43.7 46 -4.3 24.3
13:25 1016 30 845 24.95 6.4 43.6 47 -4 24.9
13:30 1016 30 845 24.95 6.4 43.5 47 -4 24.8
13:35 1016 30 845 24.95 6.5 43.8 46 -4.3 24.2
13:40 1016 30 845 24.95 6.9 44.4 43 -4.8 23.4
13:45 1016 30 845 24.95 6.8 44.2 44 -4.7 23.6
13:50 1016 30 845 24.95 6.7 44 43 -4.9 23.3
13:55 1016 30 845 24.95 6.7 44.1 45 -4.5 23.9
14:00 1016 30 845 24.95 6.6 43.9 43 -5 23
14:05 1016 30 845 24.95 6.9 44.4 43 -4.7 23.5
14:10 1016 30 845 24.95 6.8 44.2 44 -4.5 24
14:15 1016 30 845 24.95 6.6 43.9 45 -4.6 23.8
14:20 1016 30 845 24.95 6.7 44 44 -4.7 23.6
14:25 1016 30 845 24.95 6.7 44 45 -4.3 24.2
14:30 1016 30 845 24.95 6.5 43.7 45 -4.5 23.8
14:35 1016 30 845 24.95 6.6 43.8 45 -4.5 23.9
14:40 1016 30 845 24.95 6.6 43.9 43 -5.1 22.8
14:45 1016 30 845 24.95 6.8 44.2 44 -4.7 23.6
14:50 1016 30 845 24.95 6.6 43.9 45 -4.6 23.7
14:55 1016 30 845 24.95 6.4 43.6 45 -4.6 23.7
15:00 1016 30 845 24.95 6.3 43.3 46 -4.4 24
15:05 1016 30 845 24.95 6.4 43.5 45 -4.8 23.4
15:10 1016 30 845 24.95 6.4 43.5 45 -4.6 23.7
15:15 1016 30 845 24.95 6.1 43.1 47 -4.4 24
15:20 1016 30 845 24.95 6.1 42.9 46 -4.6 23.7
15:25 1016 30 845 24.95 6 42.9 46 -4.7 23.5
15:30 1016 30 845 24.95 6 42.9 45 -5 23.1
15:35 1016 30 845 24.95 6.1 43 46 -4.6 23.8
15:40 1016 30 845 24.95 6 42.8 47 -4.4 24.1
15:45 1016 30 845 24.95 6 42.8 47 -4.4 24.1
15:50 1016 30 846 24.98 6.1 42.9 47 -4.4 24.1
15:55 1017 30.03 846 24.98 6.4 43.5 46 -4.4 24.1
16:00 1017 30.03 846 24.98 6 42.7 57 -1.8 28.7
16:05 1017 30.03 846 24.98 4.9 40.8 64 -1.4 29.4
16:10 1017 30.03 846 24.98 4.3 39.8 66 -1.5 29.3
16:15 1017 30.03 846 24.98 4.1 39.3 67 -1.5 29.3
16:20 1017 30.03 846 24.98 4 39.2 68 -1.5 29.4
16:25 1017 30.03 846 24.98 4 39.2 67 -1.5 29.4
16:30 1017 30.03 846 24.98 4 39.2 65 -1.9 28.6
16:35 1017 30.03 846 24.98 4.1 39.3 65 -1.8 28.7
16:40 1016 30 846 24.98 4.1 39.5 63 -2.2 28.1
16:45 1017 30.03 846 24.98 4.3 39.8 64 -2 28.5
16:50 1017 30.03 846 24.98 4.4 39.9 64 -1.9 28.6
16:55 1017 30.03 846 24.98 4.3 39.7 64 -1.9 28.5
17:00 1016 30 846 24.98 4.4 40 61 -2.4 27.8
17:05 1016 30 846 24.98 4.6 40.3 61 -2.4 27.8
17:10 1017 30.03 846 24.98 4.5 40.1 64 -1.8 28.8
17:15 1017 30.03 846 24.98 3.9 39 69 -1.3 29.7
17:20 1017 30.03 846 24.98 3.3 37.9 72 -1.3 29.6
17:25 1017 30.03 846 24.98 3 37.5 71 -1.6 29
17:30 1016 30 846 24.98 3 37.4 71 -1.8 28.7
17:35 1016 30 845 24.95 3.3 37.9 70 -1.7 29
17:40 1016 30 845 24.95 3.4 38 66 -2.3 27.9
17:45 1016 30 845 24.95 3.8 38.9 64 -2.4 27.7
17:50 1016 30 845 24.95 4 39.1 63 -2.4 27.7
17:55 1016 30 845 24.95 3.9 39 64 -2.2 28
18:00 1016 30 845 24.95 3.7 38.7 66 -2.1 28.2
18:05 1016 30 845 24.95 3.8 38.9 66 -2 28.3
18:10 1016 30 846 24.98 3.9 39.1 63 -2.5 27.5
18:15 1016 30 846 24.98 4.1 39.5 62 -2.6 27.3
18:20 1016 30 845 24.95 4.2 39.6 61 -2.7 27.2
18:25 1016 30 845 24.95 4.4 39.9 55 -3.8 25.2
18:30 1016 30 845 24.95 4.9 40.8 52 -4.1 24.6
18:35 1016 30 845 24.95 5.3 41.5 51 -4 24.8
18:40 1016 30 846 24.98 5.3 41.5 52 -3.7 25.4
18:45 1016 30 845 24.95 5.2 41.4 52 -3.9 25
18:50 1016 30 846 24.98 5.3 41.5 52 -3.7 25.3
18:55 1016 30 845 24.95 5.2 41.4 53 -3.7 25.4
19:00 1016 30 845 24.95 5.2 41.3 53 -3.7 25.3
19:05 1016 30 846 24.98 5.2 41.3 52 -3.9 25
19:10 1016 30 845 24.95 5.1 41.2 53 -3.7 25.4
19:15 1016 30 845 24.95 5.1 41.1 54 -3.5 25.6
19:20 1016 30 845 24.95 4.9 40.8 54 -3.7 25.4
19:25 1016 30 846 24.98 4.8 40.7 54 -3.7 25.3
19:30 1017 30.03 846 24.98 4.9 40.8 52 -4.1 24.7
19:35 1017 30.03 846 24.98 5.2 41.3 51 -4.2 24.4
19:40 1017 30.03 846 24.98 5.4 41.7 51 -4.1 24.7
19:45 1017 30.03 846 24.98 5.4 41.7 50 -4.2 24.5
19:50 1017 30.03 846 24.98 5.4 41.8 50 -4.1 24.6
19:55 1017 30.03 846 24.98 5.4 41.6 51 -4 24.9
20:00 1017 30.03 846 24.98 5.2 41.4 51 -4 24.7
20:05 1017 30.03 846 24.98 5.3 41.5 49 -4.6 23.8
20:10 1017 30.03 846 24.98 5.5 41.9 49 -4.3 24.3
20:15 1017 30.03 846 24.98 5.4 41.7 50 -4.2 24.5
20:20 1017 30.03 846 24.98 5.3 41.6 49 -4.5 24
20:25 1017 30.03 846 24.98 5.4 41.7 49 -4.5 23.9
20:30 1017 30.03 846 24.98 5.6 42 49 -4.4 24.2
20:35 1017 30.03 846 24.98 5.6 42.1 51 -3.8 25.2
20:40 1017 30.03 846 24.98 5.5 41.8 50 -4.2 24.5
20:45 1017 30.03 846 24.98 5.6 42 50 -4.2 24.5
20:50 1017 30.03 846 24.98 5.6 42.1 50 -4.1 24.7
20:55 1017 30.03 846 24.98 5.5 41.9 50 -4 24.8
21:00 1017 30.03 846 24.98 5.5 41.9 50 -4.1 24.7
21:05 1017 30.03 846 24.98 5.5 41.8 50 -4.2 24.5
21:10 1017 30.03 846 24.98 5.5 41.9 49 -4.3 24.3
21:15 1017 30.03 846 24.98 5.5 41.9 50 -4.1 24.5
21:20 1017 30.03 846 24.98 5.4 41.6 51 -4 24.9
21:25 1017 30.03 846 24.98 5.2 41.3 52 -3.8 25.1
21:30 1017 30.03 846 24.98 4.9 40.9 53 -3.8 25.1
21:35 1017 30.03 846 24.98 5 41 51 -4.2 24.4
21:40 1017 30.03 846 24.98 5.1 41.1 51 -4.2 24.4
21:45 1017 30.03 846 24.98 5 41 51 -4.2 24.4
21:50 1017 30.03 846 24.98 4.9 40.9 52 -4.1 24.5
21:55 1017 30.03 846 24.98 4.9 40.8 51 -4.5 23.9
22:00 1017 30.03 846 24.98 5 41 51 -4.3 24.2
22:05 1017 30.03 846 24.98 4.9 40.9 52 -4.1 24.6
22:10 1017 30.03 846 24.98 4.7 40.4 54 -3.9 25.1
22:15 1017 30.03 846 24.98 4.4 40 53 -4.3 24.3
22:20 1017 30.03 846 24.98 4.6 40.3 52 -4.5 24
22:25 1017 30.03 846 24.98 4.7 40.4 52 -4.3 24.3
22:30 1017 30.03 846 24.98 4.7 40.5 51 -4.6 23.6
22:35 1017 30.03 846 24.98 4.8 40.7 49 -4.9 23.2
22:40 1017 30.03 846 24.98 5 40.9 48 -5 23
22:45 1017 30.03 846 24.98 5.2 41.3 48 -4.9 23.1
22:50 1017 30.03 846 24.98 5 41.1 49 -4.8 23.4
22:55 1017 30.03 846 24.98 5 41 49 -5 23.1
23:00 1017 30.03 846 24.98 4.9 40.9 49 -4.8 23.3
23:05 1017 30.03 846 24.98 4.8 40.7 49 -5 23
23:10 1017 30.03 846 24.98 4.9 40.9 48 -5.2 22.6
23:15 1017 30.03 846 24.98 4.9 40.9 48 -5.1 22.8
23:20 1017 30.03 846 24.98 4.9 40.8 48 -5.2 22.7
23:25 1017 30.03 846 24.98 4.8 40.6 49 -5 22.9
23:30 1017 30.03 846 24.98 4.6 40.3 49 -5 22.9
23:35 1017 30.03 846 24.98 4.6 40.2 49 -5.1 22.8
23:40 1017 30.03 846 24.98 4.5 40.1 50 -5.1 22.8
23:45 1017 30.03 846 24.98 4.5 40.1 50 -5 23
23:50 1017 30.03 846 24.98 4.5 40.2 50 -5.1 22.8
23:55 1017 30.03 846 24.98 4.6 40.3 49 -5.1 22.8
24:00 1017 30.03 846 24.98 4.6 40.2 50 -5 23